sensor_id;sensor_type;location;lat;lon;timestamp;pressure;altitude;pressure_sealevel;temperature;humidity
6090;BME280;3073;42.660;23.316;2023-04-04T00:01:44;93098.38;;;23.15;53.13
6090;BME280;3073;42.660;23.316;2023-04-04T00:04:11;93101.72;;;22.92;52.62
6090;BME280;3073;42.660;23.316;2023-04-04T00:06:38;93105.94;;;23.46;52.19
6090;BME280;3073;42.660;23.316;2023-04-04T00:09:10;93107.88;;;23.52;51.64
6090;BME280;3073;42.660;23.316;2023-04-04T00:11:39;93106.78;;;23.53;51.69
6090;BME280;3073;42.660;23.316;2023-04-04T00:14:07;93109.59;;;23.41;51.44
6090;BME280;3073;42.660;23.316;2023-04-04T00:16:34;93121.81;;;22.53;52.89
6090;BME280;3073;42.660;23.316;2023-04-04T00:19:01;93117.38;;;22.16;53.53
6090;BME280;3073;42.660;23.316;2023-04-04T00:21:28;93120.31;;;22.14;53.95
6090;BME280;3073;42.660;23.316;2023-04-04T00:23:56;93115.13;;;21.95;53.17
6090;BME280;3073;42.660;23.316;2023-04-04T00:26:24;93117.22;;;21.89;53.32
6090;BME280;3073;42.660;23.316;2023-04-04T00:28:51;93111.72;;;21.60;53.88
6090;BME280;3073;42.660;23.316;2023-04-04T00:31:18;93098.69;;;21.09;54.69
6090;BME280;3073;42.660;23.316;2023-04-04T00:33:46;93095.06;;;20.82;54.97
6090;BME280;3073;42.660;23.316;2023-04-04T00:36:13;93087.97;;;20.08;57.06
6090;BME280;3073;42.660;23.316;2023-04-04T00:38:40;93090.34;;;21.31;54.71
6090;BME280;3073;42.660;23.316;2023-04-04T00:41:06;93078.28;;;20.76;56.00
6090;BME280;3073;42.660;23.316;2023-04-04T00:43:35;93081.00;;;20.24;56.88
6090;BME280;3073;42.660;23.316;2023-04-04T00:46:02;93080.22;;;20.51;57.41
6090;BME280;3073;42.660;23.316;2023-04-04T00:48:29;93078.06;;;20.26;57.12
6090;BME280;3073;42.660;23.316;2023-04-04T00:50:56;93065.13;;;20.26;57.50
6090;BME280;3073;42.660;23.316;2023-04-04T00:53:23;93071.56;;;22.27;53.36
6090;BME280;3073;42.660;23.316;2023-04-04T00:55:50;93070.09;;;20.19;56.40
6090;BME280;3073;42.660;23.316;2023-04-04T00:58:17;93063.31;;;21.17;55.24
6090;BME280;3073;42.660;23.316;2023-04-04T01:00:46;93074.53;;;20.18;57.61
6090;BME280;3073;42.660;23.316;2023-04-04T01:03:12;93078.19;;;21.51;55.98
6090;BME280;3073;42.660;23.316;2023-04-04T01:05:39;93074.38;;;20.39;57.93
6090;BME280;3073;42.660;23.316;2023-04-04T01:08:07;93084.91;;;21.71;54.75
6090;BME280;3073;42.660;23.316;2023-04-04T01:10:34;93085.31;;;21.07;55.66
6090;BME280;3073;42.660;23.316;2023-04-04T01:13:01;93082.25;;;21.52;54.63
6090;BME280;3073;42.660;23.316;2023-04-04T01:15:28;93087.34;;;21.64;54.96
6090;BME280;3073;42.660;23.316;2023-04-04T01:17:59;93091.59;;;22.26;53.43
6090;BME280;3073;42.660;23.316;2023-04-04T01:20:29;93089.59;;;21.66;54.55
6090;BME280;3073;42.660;23.316;2023-04-04T01:22:59;93094.00;;;22.35;53.22
6090;BME280;3073;42.660;23.316;2023-04-04T01:25:29;93091.50;;;22.80;52.58
6090;BME280;3073;42.660;23.316;2023-04-04T01:27:58;93089.22;;;23.47;50.95
6090;BME280;3073;42.660;23.316;2023-04-04T01:30:27;93093.00;;;22.81;52.61
6090;BME280;3073;42.660;23.316;2023-04-04T01:33:00;93088.50;;;23.50;50.66
6090;BME280;3073;42.660;23.316;2023-04-04T01:35:34;93085.03;;;23.69;51.33
6090;BME280;3073;42.660;23.316;2023-04-04T01:38:12;93083.66;;;23.26;51.31
6090;BME280;3073;42.660;23.316;2023-04-04T01:40:48;93081.38;;;22.56;52.65
6090;BME280;3073;42.660;23.316;2023-04-04T01:43:14;93058.84;;;22.22;53.15
6090;BME280;3073;42.660;23.316;2023-04-04T01:45:41;93061.81;;;21.85;52.76
6090;BME280;3073;42.660;23.316;2023-04-04T01:48:09;93057.78;;;21.34;54.27
6090;BME280;3073;42.660;23.316;2023-04-04T01:50:36;93048.44;;;22.22;52.63
6090;BME280;3073;42.660;23.316;2023-04-04T01:53:03;93039.41;;;21.42;52.99
6090;BME280;3073;42.660;23.316;2023-04-04T01:55:30;93032.03;;;21.79;52.39
6090;BME280;3073;42.660;23.316;2023-04-04T01:57:58;93037.66;;;22.20;51.36
6090;BME280;3073;42.660;23.316;2023-04-04T02:00:25;93037.63;;;21.12;52.91
6090;BME280;3073;42.660;23.316;2023-04-04T02:02:52;93034.56;;;22.33;51.30
6090;BME280;3073;42.660;23.316;2023-04-04T02:05:19;93031.94;;;21.56;53.04
6090;BME280;3073;42.660;23.316;2023-04-04T02:07:47;93029.31;;;22.30;51.93
6090;BME280;3073;42.660;23.316;2023-04-04T02:10:15;93037.25;;;22.18;51.87
6090;BME280;3073;42.660;23.316;2023-04-04T02:12:42;93037.34;;;21.48;52.81
6090;BME280;3073;42.660;23.316;2023-04-04T02:15:10;93041.72;;;21.82;52.49
6090;BME280;3073;42.660;23.316;2023-04-04T02:17:37;93038.97;;;21.56;52.90
6090;BME280;3073;42.660;23.316;2023-04-04T02:20:05;93037.03;;;21.88;52.30
6090;BME280;3073;42.660;23.316;2023-04-04T02:22:32;93036.19;;;21.30;52.72
6090;BME280;3073;42.660;23.316;2023-04-04T02:24:59;93025.88;;;22.45;50.66
6090;BME280;3073;42.660;23.316;2023-04-04T02:27:27;93031.66;;;21.96;51.27
6090;BME280;3073;42.660;23.316;2023-04-04T02:29:54;93023.19;;;23.09;49.55
6090;BME280;3073;42.660;23.316;2023-04-04T02:32:23;93032.00;;;21.41;52.26
6090;BME280;3073;42.660;23.316;2023-04-04T02:34:50;93032.50;;;22.65;49.49
6090;BME280;3073;42.660;23.316;2023-04-04T02:37:17;93035.19;;;22.91;49.34
6090;BME280;3073;42.660;23.316;2023-04-04T02:39:44;93035.06;;;22.20;50.33
6090;BME280;3073;42.660;23.316;2023-04-04T02:42:11;93034.84;;;22.28;49.96
6090;BME280;3073;42.660;23.316;2023-04-04T02:44:38;93036.84;;;21.62;50.47
6090;BME280;3073;42.660;23.316;2023-04-04T02:47:05;93033.44;;;20.60;52.12
6090;BME280;3073;42.660;23.316;2023-04-04T02:49:33;93036.13;;;21.80;50.32
6090;BME280;3073;42.660;23.316;2023-04-04T02:52:00;93035.72;;;21.78;50.86
6090;BME280;3073;42.660;23.316;2023-04-04T02:54:27;93030.47;;;21.40;51.95
6090;BME280;3073;42.660;23.316;2023-04-04T02:56:53;93032.94;;;20.54;52.65
6090;BME280;3073;42.660;23.316;2023-04-04T02:59:21;93040.22;;;21.12;51.76
6090;BME280;3073;42.660;23.316;2023-04-04T03:01:47;93041.19;;;22.95;48.82
6090;BME280;3073;42.660;23.316;2023-04-04T03:04:14;93047.66;;;22.18;49.39
6090;BME280;3073;42.660;23.316;2023-04-04T03:06:45;93035.06;;;22.20;50.12
6090;BME280;3073;42.660;23.316;2023-04-04T03:09:13;93040.97;;;23.04;48.02
6090;BME280;3073;42.660;23.316;2023-04-04T03:11:40;93042.88;;;22.00;49.66
6090;BME280;3073;42.660;23.316;2023-04-04T03:14:07;93042.75;;;23.49;47.20
6090;BME280;3073;42.660;23.316;2023-04-04T03:16:34;93050.59;;;23.52;47.37
6090;BME280;3073;42.660;23.316;2023-04-04T03:19:03;93054.69;;;23.80;46.85
6090;BME280;3073;42.660;23.316;2023-04-04T03:21:30;93049.16;;;23.55;47.46
6090;BME280;3073;42.660;23.316;2023-04-04T03:23:59;93056.00;;;24.26;46.28
6090;BME280;3073;42.660;23.316;2023-04-04T03:26:27;93050.94;;;24.40;46.16
6090;BME280;3073;42.660;23.316;2023-04-04T03:28:56;93048.56;;;24.25;45.60
6090;BME280;3073;42.660;23.316;2023-04-04T03:31:23;93049.13;;;24.44;45.66
6090;BME280;3073;42.660;23.316;2023-04-04T03:33:51;93049.31;;;24.66;45.09
6090;BME280;3073;42.660;23.316;2023-04-04T03:36:18;93059.75;;;22.94;47.33
6090;BME280;3073;42.660;23.316;2023-04-04T03:38:46;93059.97;;;21.86;50.70
6090;BME280;3073;42.660;23.316;2023-04-04T03:41:16;93059.25;;;22.24;49.21
6090;BME280;3073;42.660;23.316;2023-04-04T03:43:44;93053.44;;;23.18;47.78
6090;BME280;3073;42.660;23.316;2023-04-04T03:46:11;93056.25;;;23.84;46.71
6090;BME280;3073;42.660;23.316;2023-04-04T03:48:38;93052.25;;;23.94;46.63
6090;BME280;3073;42.660;23.316;2023-04-04T03:51:05;93055.13;;;24.48;45.51
6090;BME280;3073;42.660;23.316;2023-04-04T03:53:32;93060.78;;;24.54;46.13
6090;BME280;3073;42.660;23.316;2023-04-04T03:56:00;93063.25;;;24.80;44.58
6090;BME280;3073;42.660;23.316;2023-04-04T03:58:28;93055.25;;;23.96;46.06
6090;BME280;3073;42.660;23.316;2023-04-04T04:00:55;93051.06;;;23.88;46.21
6090;BME280;3073;42.660;23.316;2023-04-04T04:03:22;93055.06;;;23.52;46.48
6090;BME280;3073;42.660;23.316;2023-04-04T04:05:48;93061.94;;;22.27;48.73
6090;BME280;3073;42.660;23.316;2023-04-04T04:08:15;93060.47;;;21.22;51.15
6090;BME280;3073;42.660;23.316;2023-04-04T04:10:42;93054.63;;;21.60;50.48
6090;BME280;3073;42.660;23.316;2023-04-04T04:13:10;93057.38;;;22.43;49.42
6090;BME280;3073;42.660;23.316;2023-04-04T04:15:38;93060.84;;;22.09;50.35
6090;BME280;3073;42.660;23.316;2023-04-04T04:18:25;93059.84;;;22.36;49.06
6090;BME280;3073;42.660;23.316;2023-04-04T04:20:56;93067.31;;;22.38;49.34
6090;BME280;3073;42.660;23.316;2023-04-04T04:23:23;93067.19;;;22.31;50.05
6090;BME280;3073;42.660;23.316;2023-04-04T04:25:50;93060.25;;;21.46;51.37
6090;BME280;3073;42.660;23.316;2023-04-04T04:28:17;93073.34;;;21.34;51.80
6090;BME280;3073;42.660;23.316;2023-04-04T04:30:45;93071.56;;;22.88;48.66
6090;BME280;3073;42.660;23.316;2023-04-04T04:33:14;93082.31;;;22.86;48.78
6090;BME280;3073;42.660;23.316;2023-04-04T04:35:41;93082.22;;;23.51;47.54
6090;BME280;3073;42.660;23.316;2023-04-04T04:38:08;93086.97;;;23.72;46.79
6090;BME280;3073;42.660;23.316;2023-04-04T04:40:35;93082.53;;;24.05;46.28
6090;BME280;3073;42.660;23.316;2023-04-04T04:43:02;93089.75;;;24.49;45.57
6090;BME280;3073;42.660;23.316;2023-04-04T04:45:28;93085.34;;;24.53;45.72
6090;BME280;3073;42.660;23.316;2023-04-04T04:47:57;93089.75;;;23.86;46.72
6090;BME280;3073;42.660;23.316;2023-04-04T04:50:24;93098.19;;;22.62;48.18
6090;BME280;3073;42.660;23.316;2023-04-04T04:52:51;93106.78;;;23.04;47.96
6090;BME280;3073;42.660;23.316;2023-04-04T04:55:18;93101.13;;;21.84;50.54
6090;BME280;3073;42.660;23.316;2023-04-04T04:57:45;93104.78;;;21.64;51.18
6090;BME280;3073;42.660;23.316;2023-04-04T05:00:13;93096.91;;;23.40;48.53
6090;BME280;3073;42.660;23.316;2023-04-04T05:02:41;93109.22;;;24.55;46.10
6090;BME280;3073;42.660;23.316;2023-04-04T05:05:09;93112.91;;;23.91;46.73
6090;BME280;3073;42.660;23.316;2023-04-04T05:07:36;93117.44;;;24.57;45.89
6090;BME280;3073;42.660;23.316;2023-04-04T05:10:03;93120.56;;;25.06;45.26
6090;BME280;3073;42.660;23.316;2023-04-04T05:12:30;93116.78;;;25.48;44.70
6090;BME280;3073;42.660;23.316;2023-04-04T05:14:57;93117.69;;;24.45;45.98
6090;BME280;3073;42.660;23.316;2023-04-04T05:17:24;93118.38;;;23.11;48.46
6090;BME280;3073;42.660;23.316;2023-04-04T05:19:50;93120.22;;;23.33;47.81
6090;BME280;3073;42.660;23.316;2023-04-04T05:22:19;93122.84;;;24.41;46.36
6090;BME280;3073;42.660;23.316;2023-04-04T05:24:45;93135.91;;;25.12;45.37
6090;BME280;3073;42.660;23.316;2023-04-04T05:27:12;93133.19;;;25.45;45.04
6090;BME280;3073;42.660;23.316;2023-04-04T05:29:42;93125.59;;;25.77;44.78
6090;BME280;3073;42.660;23.316;2023-04-04T05:32:10;93131.66;;;25.91;44.14
6090;BME280;3073;42.660;23.316;2023-04-04T05:34:37;93133.44;;;25.80;43.94
6090;BME280;3073;42.660;23.316;2023-04-04T05:37:09;93124.34;;;25.60;44.28
6090;BME280;3073;42.660;23.316;2023-04-04T05:39:39;93132.41;;;25.41;44.60
6090;BME280;3073;42.660;23.316;2023-04-04T05:42:05;93129.34;;;25.32;44.47
6090;BME280;3073;42.660;23.316;2023-04-04T05:44:32;93138.25;;;26.40;43.05
6090;BME280;3073;42.660;23.316;2023-04-04T05:46:59;93138.94;;;25.21;44.81
6090;BME280;3073;42.660;23.316;2023-04-04T05:49:26;93139.28;;;25.59;44.23
6090;BME280;3073;42.660;23.316;2023-04-04T05:51:53;93137.03;;;24.44;46.63
6090;BME280;3073;42.660;23.316;2023-04-04T05:54:21;93138.75;;;25.94;44.16
6090;BME280;3073;42.660;23.316;2023-04-04T05:56:49;93145.47;;;25.95;43.92
6090;BME280;3073;42.660;23.316;2023-04-04T05:59:16;93147.28;;;26.53;42.67
6090;BME280;3073;42.660;23.316;2023-04-04T06:01:43;93144.41;;;26.86;42.32
6090;BME280;3073;42.660;23.316;2023-04-04T06:04:10;93135.72;;;25.82;43.52
6090;BME280;3073;42.660;23.316;2023-04-04T06:06:37;93144.34;;;25.93;43.92
6090;BME280;3073;42.660;23.316;2023-04-04T06:09:04;93149.81;;;26.32;43.28
6090;BME280;3073;42.660;23.316;2023-04-04T06:11:31;93146.66;;;26.01;43.65
6090;BME280;3073;42.660;23.316;2023-04-04T06:14:00;93146.97;;;25.42;44.56
6090;BME280;3073;42.660;23.316;2023-04-04T06:16:27;93152.84;;;25.79;43.78
6090;BME280;3073;42.660;23.316;2023-04-04T06:18:54;93157.81;;;25.95;43.62
6090;BME280;3073;42.660;23.316;2023-04-04T06:21:21;93160.13;;;26.90;42.63
6090;BME280;3073;42.660;23.316;2023-04-04T06:23:48;93158.94;;;26.73;43.10
6090;BME280;3073;42.660;23.316;2023-04-04T06:26:15;93160.75;;;26.55;42.87
6090;BME280;3073;42.660;23.316;2023-04-04T06:28:46;93163.13;;;26.81;42.14
6090;BME280;3073;42.660;23.316;2023-04-04T06:31:15;93163.41;;;26.73;42.85
6090;BME280;3073;42.660;23.316;2023-04-04T06:33:42;93169.03;;;26.68;43.05
6090;BME280;3073;42.660;23.316;2023-04-04T06:36:09;93172.75;;;26.70;42.39
6090;BME280;3073;42.660;23.316;2023-04-04T06:38:36;93174.97;;;25.92;43.36
6090;BME280;3073;42.660;23.316;2023-04-04T06:41:03;93192.97;;;26.73;42.96
6090;BME280;3073;42.660;23.316;2023-04-04T06:43:31;93196.59;;;25.42;44.41
6090;BME280;3073;42.660;23.316;2023-04-04T06:45:58;93203.13;;;24.85;43.77
6090;BME280;3073;42.660;23.316;2023-04-04T06:48:27;93216.22;;;24.32;44.19
6090;BME280;3073;42.660;23.316;2023-04-04T06:50:53;93227.22;;;22.67;45.46
6090;BME280;3073;42.660;23.316;2023-04-04T06:53:20;93216.03;;;20.11;47.41
6090;BME280;3073;42.660;23.316;2023-04-04T06:55:49;93217.84;;;20.22;47.56
6090;BME280;3073;42.660;23.316;2023-04-04T06:58:16;93220.16;;;19.51;47.98
6090;BME280;3073;42.660;23.316;2023-04-04T07:00:43;93239.66;;;20.73;47.06
6090;BME280;3073;42.660;23.316;2023-04-04T07:03:10;93247.63;;;20.80;45.99
6090;BME280;3073;42.660;23.316;2023-04-04T07:05:45;93261.34;;;20.41;46.49
6090;BME280;3073;42.660;23.316;2023-04-04T07:08:11;93268.69;;;20.15;46.66
6090;BME280;3073;42.660;23.316;2023-04-04T07:10:38;93280.00;;;21.42;44.43
6090;BME280;3073;42.660;23.316;2023-04-04T07:13:05;93302.00;;;19.92;45.42
6090;BME280;3073;42.660;23.316;2023-04-04T07:15:32;93289.31;;;21.15;44.15
6090;BME280;3073;42.660;23.316;2023-04-04T07:17:59;93309.56;;;19.97;44.99
6090;BME280;3073;42.660;23.316;2023-04-04T07:20:26;93306.44;;;19.79;46.06
6090;BME280;3073;42.660;23.316;2023-04-04T07:22:54;93314.16;;;17.38;48.03
6090;BME280;3073;42.660;23.316;2023-04-04T07:25:21;93311.22;;;18.70;46.10
6090;BME280;3073;42.660;23.316;2023-04-04T07:27:48;93322.72;;;19.68;45.75
6090;BME280;3073;42.660;23.316;2023-04-04T07:30:17;93326.19;;;19.96;44.61
6090;BME280;3073;42.660;23.316;2023-04-04T07:32:44;93326.78;;;19.57;45.73
6090;BME280;3073;42.660;23.316;2023-04-04T07:35:12;93333.75;;;20.62;43.73
6090;BME280;3073;42.660;23.316;2023-04-04T07:37:39;93335.16;;;19.21;45.26
6090;BME280;3073;42.660;23.316;2023-04-04T07:40:08;93340.81;;;18.14;46.22
6090;BME280;3073;42.660;23.316;2023-04-04T07:42:35;93338.38;;;18.47;46.20
6090;BME280;3073;42.660;23.316;2023-04-04T07:45:02;93342.16;;;18.20;46.30
6090;BME280;3073;42.660;23.316;2023-04-04T07:47:29;93340.69;;;17.47;46.97
6090;BME280;3073;42.660;23.316;2023-04-04T07:49:56;93351.47;;;17.32;47.91
6090;BME280;3073;42.660;23.316;2023-04-04T07:52:23;93348.59;;;17.33;47.64
6090;BME280;3073;42.660;23.316;2023-04-04T07:54:49;93353.56;;;17.73;46.80
6090;BME280;3073;42.660;23.316;2023-04-04T07:57:18;93357.88;;;18.36;46.41
6090;BME280;3073;42.660;23.316;2023-04-04T07:59:46;93352.56;;;17.31;46.38
6090;BME280;3073;42.660;23.316;2023-04-04T08:02:12;93372.19;;;17.87;46.42
6090;BME280;3073;42.660;23.316;2023-04-04T08:04:39;93366.47;;;18.48;45.63
6090;BME280;3073;42.660;23.316;2023-04-04T08:07:06;93357.56;;;17.10;47.07
6090;BME280;3073;42.660;23.316;2023-04-04T08:09:33;93365.28;;;17.44;47.06
6090;BME280;3073;42.660;23.316;2023-04-04T08:12:00;93370.59;;;17.14;46.86
6090;BME280;3073;42.660;23.316;2023-04-04T08:14:29;93376.66;;;17.35;45.90
6090;BME280;3073;42.660;23.316;2023-04-04T08:16:56;93373.88;;;18.88;44.06
6090;BME280;3073;42.660;23.316;2023-04-04T08:19:23;93374.19;;;17.73;45.69
6090;BME280;3073;42.660;23.316;2023-04-04T08:21:49;93377.59;;;18.02;45.83
6090;BME280;3073;42.660;23.316;2023-04-04T08:24:16;93386.72;;;16.15;47.61
6090;BME280;3073;42.660;23.316;2023-04-04T08:26:43;93395.34;;;18.13;44.93
6090;BME280;3073;42.660;23.316;2023-04-04T08:29:10;93397.13;;;17.31;45.66
6090;BME280;3073;42.660;23.316;2023-04-04T08:31:38;93410.78;;;15.79;47.74
6090;BME280;3073;42.660;23.316;2023-04-04T08:34:05;93397.16;;;18.12;45.26
6090;BME280;3073;42.660;23.316;2023-04-04T08:36:33;93402.69;;;16.73;46.86
6090;BME280;3073;42.660;23.316;2023-04-04T08:39:00;93405.66;;;18.13;45.17
6090;BME280;3073;42.660;23.316;2023-04-04T08:41:28;93407.97;;;16.29;47.05
6090;BME280;3073;42.660;23.316;2023-04-04T08:43:56;93405.91;;;17.22;46.46
6090;BME280;3073;42.660;23.316;2023-04-04T08:46:27;93415.66;;;16.51;47.63
6090;BME280;3073;42.660;23.316;2023-04-04T08:48:57;93413.97;;;17.03;47.49
6090;BME280;3073;42.660;23.316;2023-04-04T08:51:25;93420.72;;;16.82;47.56
6090;BME280;3073;42.660;23.316;2023-04-04T08:53:56;93425.94;;;15.23;48.99
6090;BME280;3073;42.660;23.316;2023-04-04T08:56:24;93426.25;;;16.97;47.46
6090;BME280;3073;42.660;23.316;2023-04-04T08:58:53;93430.25;;;16.64;46.82
6090;BME280;3073;42.660;23.316;2023-04-04T09:01:21;93436.13;;;17.64;45.96
6090;BME280;3073;42.660;23.316;2023-04-04T09:03:48;93427.63;;;17.46;46.28
6090;BME280;3073;42.660;23.316;2023-04-04T09:06:17;93439.38;;;16.39;47.18
6090;BME280;3073;42.660;23.316;2023-04-04T09:08:46;93435.63;;;16.15;47.42
6090;BME280;3073;42.660;23.316;2023-04-04T09:11:14;93430.41;;;16.68;47.44
6090;BME280;3073;42.660;23.316;2023-04-04T09:13:43;93438.31;;;18.09;45.59
6090;BME280;3073;42.660;23.316;2023-04-04T09:16:10;93445.81;;;17.41;46.89
6090;BME280;3073;42.660;23.316;2023-04-04T09:18:37;93440.41;;;16.61;46.40
6090;BME280;3073;42.660;23.316;2023-04-04T09:21:08;93441.81;;;16.84;46.81
6090;BME280;3073;42.660;23.316;2023-04-04T09:23:37;93440.38;;;17.60;45.25
6090;BME280;3073;42.660;23.316;2023-04-04T09:26:04;93446.16;;;17.74;44.94
6090;BME280;3073;42.660;23.316;2023-04-04T09:28:32;93436.56;;;17.83;44.87
6090;BME280;3073;42.660;23.316;2023-04-04T09:31:00;93447.47;;;17.29;45.31
6090;BME280;3073;42.660;23.316;2023-04-04T09:33:30;93450.81;;;17.55;44.29
6090;BME280;3073;42.660;23.316;2023-04-04T09:36:00;93453.41;;;16.56;45.44
6090;BME280;3073;42.660;23.316;2023-04-04T09:38:28;93449.31;;;17.63;44.24
6090;BME280;3073;42.660;23.316;2023-04-04T09:40:57;93454.75;;;17.01;45.26
6090;BME280;3073;42.660;23.316;2023-04-04T09:43:24;93458.09;;;17.10;45.14
6090;BME280;3073;42.660;23.316;2023-04-04T09:45:55;93461.16;;;15.22;46.94
6090;BME280;3073;42.660;23.316;2023-04-04T09:48:25;93459.44;;;16.51;46.36
6090;BME280;3073;42.660;23.316;2023-04-04T09:50:53;93454.63;;;17.83;44.68
6090;BME280;3073;42.660;23.316;2023-04-04T09:53:20;93462.13;;;16.85;45.21
6090;BME280;3073;42.660;23.316;2023-04-04T09:55:51;93465.06;;;17.01;44.70
6090;BME280;3073;42.660;23.316;2023-04-04T09:58:25;93461.25;;;15.31;47.33
6090;BME280;3073;42.660;23.316;2023-04-04T10:00:54;93456.13;;;16.59;45.17
6090;BME280;3073;42.660;23.316;2023-04-04T10:03:22;93457.06;;;17.54;43.43
6090;BME280;3073;42.660;23.316;2023-04-04T10:05:54;93453.56;;;16.59;45.16
6090;BME280;3073;42.660;23.316;2023-04-04T10:08:22;93452.38;;;16.65;45.64
6090;BME280;3073;42.660;23.316;2023-04-04T10:10:51;93460.56;;;17.67;43.77
6090;BME280;3073;42.660;23.316;2023-04-04T10:13:23;93465.25;;;17.90;43.11
6090;BME280;3073;42.660;23.316;2023-04-04T10:15:52;93466.56;;;17.19;43.90
6090;BME280;3073;42.660;23.316;2023-04-04T10:18:22;93474.94;;;17.42;43.84
6090;BME280;3073;42.660;23.316;2023-04-04T10:20:50;93482.00;;;16.54;45.02
6090;BME280;3073;42.660;23.316;2023-04-04T10:23:18;93491.72;;;16.26;45.87
6090;BME280;3073;42.660;23.316;2023-04-04T10:25:45;93483.28;;;16.34;45.06
6090;BME280;3073;42.660;23.316;2023-04-04T10:28:12;93490.09;;;17.35;43.75
6090;BME280;3073;42.660;23.316;2023-04-04T10:30:41;93492.25;;;17.50;43.81
6090;BME280;3073;42.660;23.316;2023-04-04T10:33:18;93490.09;;;17.18;43.73
6090;BME280;3073;42.660;23.316;2023-04-04T10:35:49;93491.38;;;17.80;44.02
6090;BME280;3073;42.660;23.316;2023-04-04T10:38:20;93501.84;;;16.84;44.83
6090;BME280;3073;42.660;23.316;2023-04-04T10:40:52;93507.44;;;16.86;44.76
6090;BME280;3073;42.660;23.316;2023-04-04T10:43:24;93507.75;;;16.54;45.39
6090;BME280;3073;42.660;23.316;2023-04-04T10:45:55;93506.22;;;17.83;43.06
6090;BME280;3073;42.660;23.316;2023-04-04T10:48:27;93516.00;;;16.42;44.21
6090;BME280;3073;42.660;23.316;2023-04-04T10:50:55;93516.25;;;17.59;42.86
6090;BME280;3073;42.660;23.316;2023-04-04T10:53:22;93521.34;;;16.77;44.87
6090;BME280;3073;42.660;23.316;2023-04-04T10:55:50;93523.78;;;16.20;43.67
6090;BME280;3073;42.660;23.316;2023-04-04T10:58:18;93522.28;;;16.50;43.57
6090;BME280;3073;42.660;23.316;2023-04-04T11:00:50;93524.66;;;17.17;43.73
6090;BME280;3073;42.660;23.316;2023-04-04T11:03:21;93519.59;;;16.94;43.16
6090;BME280;3073;42.660;23.316;2023-04-04T11:05:48;93514.38;;;17.34;43.23
6090;BME280;3073;42.660;23.316;2023-04-04T11:08:22;93517.31;;;17.84;42.70
6090;BME280;3073;42.660;23.316;2023-04-04T11:10:50;93528.81;;;17.43;42.69
6090;BME280;3073;42.660;23.316;2023-04-04T11:13:19;93530.81;;;16.59;43.33
6090;BME280;3073;42.660;23.316;2023-04-04T11:15:55;93538.28;;;17.91;41.98
6090;BME280;3073;42.660;23.316;2023-04-04T11:18:46;93536.88;;;16.94;42.70
6090;BME280;3073;42.660;23.316;2023-04-04T11:21:14;93541.72;;;16.12;44.02
6090;BME280;3073;42.660;23.316;2023-04-04T11:24:13;93547.81;;;17.90;42.67
6090;BME280;3073;42.660;23.316;2023-04-04T11:26:43;93544.50;;;18.79;41.13
6090;BME280;3073;42.660;23.316;2023-04-04T11:29:19;93541.28;;;17.93;41.58
6090;BME280;3073;42.660;23.316;2023-04-04T11:31:50;93552.53;;;16.22;44.21
6090;BME280;3073;42.660;23.316;2023-04-04T11:34:31;93547.81;;;18.08;41.10
6090;BME280;3073;42.660;23.316;2023-04-04T11:37:14;93541.44;;;16.97;43.20
6090;BME280;3073;42.660;23.316;2023-04-04T11:39:51;93548.19;;;16.54;44.38
6090;BME280;3073;42.660;23.316;2023-04-04T11:42:22;93542.31;;;16.92;43.30
6090;BME280;3073;42.660;23.316;2023-04-04T11:45:01;93546.50;;;18.74;41.08
6090;BME280;3073;42.660;23.316;2023-04-04T11:47:28;93555.09;;;18.23;41.50
6090;BME280;3073;42.660;23.316;2023-04-04T11:49:58;93554.44;;;17.40;42.19
6090;BME280;3073;42.660;23.316;2023-04-04T11:52:31;93550.00;;;17.32;43.44
6090;BME280;3073;42.660;23.316;2023-04-04T11:54:59;93558.47;;;16.23;43.68
6090;BME280;3073;42.660;23.316;2023-04-04T11:57:26;93547.78;;;16.91;43.29
6090;BME280;3073;42.660;23.316;2023-04-04T11:59:53;93544.31;;;18.12;41.74
6090;BME280;3073;42.660;23.316;2023-04-04T12:02:22;93544.44;;;17.47;42.20
6090;BME280;3073;42.660;23.316;2023-04-04T12:04:51;93560.44;;;16.79;43.62
6090;BME280;3073;42.660;23.316;2023-04-04T12:07:20;93550.53;;;17.68;42.53
6090;BME280;3073;42.660;23.316;2023-04-04T12:09:49;93561.25;;;16.35;43.92
6090;BME280;3073;42.660;23.316;2023-04-04T12:12:16;93565.44;;;15.64;45.55
6090;BME280;3073;42.660;23.316;2023-04-04T12:14:43;93560.41;;;16.70;43.04
6090;BME280;3073;42.660;23.316;2023-04-04T12:17:10;93561.84;;;16.54;43.10
6090;BME280;3073;42.660;23.316;2023-04-04T12:19:39;93557.94;;;16.12;44.05
6090;BME280;3073;42.660;23.316;2023-04-04T12:22:06;93555.88;;;17.80;42.07
6090;BME280;3073;42.660;23.316;2023-04-04T12:24:35;93567.47;;;16.34;44.53
6090;BME280;3073;42.660;23.316;2023-04-04T12:27:02;93567.72;;;17.16;43.17
6090;BME280;3073;42.660;23.316;2023-04-04T12:29:30;93569.44;;;15.92;43.74
6090;BME280;3073;42.660;23.316;2023-04-04T12:32:01;93571.84;;;16.33;44.66
6090;BME280;3073;42.660;23.316;2023-04-04T12:34:30;93560.50;;;16.57;44.42
6090;BME280;3073;42.660;23.316;2023-04-04T12:36:59;93565.53;;;15.45;46.08
6090;BME280;3073;42.660;23.316;2023-04-04T12:39:26;93567.66;;;15.16;47.16
6090;BME280;3073;42.660;23.316;2023-04-04T12:42:00;93563.56;;;15.29;45.63
6090;BME280;3073;42.660;23.316;2023-04-04T12:44:30;93577.28;;;16.10;45.19
6090;BME280;3073;42.660;23.316;2023-04-04T12:46:58;93566.69;;;15.26;46.63
6090;BME280;3073;42.660;23.316;2023-04-04T12:49:30;93575.44;;;14.70;46.94
6090;BME280;3073;42.660;23.316;2023-04-04T12:51:58;93575.63;;;15.42;45.59
6090;BME280;3073;42.660;23.316;2023-04-04T12:54:30;93583.56;;;15.81;45.52
6090;BME280;3073;42.660;23.316;2023-04-04T12:57:03;93578.41;;;15.81;45.52
6090;BME280;3073;42.660;23.316;2023-04-04T12:59:34;93578.78;;;14.84;46.99
6090;BME280;3073;42.660;23.316;2023-04-04T13:02:04;93575.63;;;15.42;45.61
6090;BME280;3073;42.660;23.316;2023-04-04T13:04:33;93583.25;;;14.92;45.98
6090;BME280;3073;42.660;23.316;2023-04-04T13:07:00;93588.78;;;15.54;45.94
6090;BME280;3073;42.660;23.316;2023-04-04T13:09:30;93595.44;;;16.27;45.61
6090;BME280;3073;42.660;23.316;2023-04-04T13:12:00;93598.88;;;16.22;45.41
6090;BME280;3073;42.660;23.316;2023-04-04T13:15:01;93596.13;;;15.20;46.19
6090;BME280;3073;42.660;23.316;2023-04-04T13:17:41;93611.66;;;15.91;44.91